Time;durP1;ratioP1;P1;durP2;ratioP2;P2;SDS_P1;SDS_P2;PMS_P1;PMS_P2;Temp;Humidity;BMP_temperature;BMP_pressure;BME280_temperature;BME280_humidity;BME280_pressure;Samples;Min_cycle;Max_cycle;Signal;HPM_P1;HPM_P2
2022/11/13 00:01:30;;;;;;;12.77;10.20;;;6.20;1.00;;;;;;4912201;29;20290;-68
2022/11/13 00:03:57;;;;;;;17.77;10.33;;;6.30;1.00;;;;;;4910119;29;20203;-67
2022/11/13 00:06:23;;;;;;;14.70;10.23;;;6.20;1.00;;;;;;4910823;29;20186;-66
2022/11/13 00:08:52;;;;;;;15.67;12.30;;;6.40;1.00;;;;;;4911635;29;20522;-67
2022/11/13 00:11:19;;;;;;;11.97;10.40;;;6.50;1.00;;;;;;4909771;29;20235;-67
2022/11/13 00:13:46;;;;;;;15.10;9.30;;;6.70;1.00;;;;;;4912741;29;20877;-67
2022/11/13 00:16:14;;;;;;;24.07;11.73;;;6.80;1.00;;;;;;4912343;29;20443;-67
2022/11/13 00:18:41;;;;;;;13.07;9.10;;;6.80;1.00;;;;;;4917707;29;20446;-66
2022/11/13 00:21:15;;;;;;;10.83;9.40;;;6.80;1.00;;;;;;4916173;29;20467;-67
2022/11/13 00:23:41;;;;;;;18.43;10.10;;;6.70;1.00;;;;;;4909914;29;20443;-67
2022/11/13 00:26:13;;;;;;;13.60;8.97;;;6.70;1.00;;;;;;4910661;29;20436;-66
2022/11/13 00:28:39;;;;;;;15.40;9.90;;;6.60;1.00;;;;;;4910321;29;20258;-66
2022/11/13 00:31:06;;;;;;;14.53;10.10;;;6.70;1.00;;;;;;4910674;29;20467;-67
2022/11/13 00:33:32;;;;;;;13.73;10.50;;;6.80;1.00;;;;;;4904781;29;20416;-65
2022/11/13 00:36:06;;;;;;;12.90;10.33;;;6.90;1.00;;;;;;4907749;29;20752;-67
2022/11/13 00:38:32;;;;;;;16.30;10.93;;;6.90;1.00;;;;;;4896506;29;20458;-64
2022/11/13 00:40:58;;;;;;;24.53;10.90;;;6.80;1.00;;;;;;4896469;29;20880;-66
2022/11/13 00:43:25;;;;;;;14.33;9.30;;;6.40;1.00;;;;;;4897880;29;20210;-67
2022/11/13 00:45:50;;;;;;;12.97;9.00;;;6.40;1.00;;;;;;4897629;29;20404;-66
2022/11/13 00:48:16;;;;;;;11.03;9.53;;;6.40;1.00;;;;;;4903565;29;20787;-67
2022/11/13 00:50:43;;;;;;;15.93;10.57;;;6.30;1.00;;;;;;4914975;29;20703;-64
2022/11/13 00:53:08;;;;;;;15.93;11.40;;;6.00;1.00;;;;;;4914226;29;20412;-65
2022/11/13 00:55:34;;;;;;;36.33;10.87;;;6.10;1.00;;;;;;4914050;29;20435;-66
2022/11/13 00:58:00;;;;;;;15.70;9.73;;;6.00;1.00;;;;;;4914624;29;20175;-65
2022/11/13 01:00:25;;;;;;;24.30;11.27;;;5.90;1.00;;;;;;4907425;29;20960;-64
2022/11/13 01:02:51;;;;;;;33.80;12.63;;;5.60;1.00;;;;;;4895645;29;20176;-65
2022/11/13 01:05:17;;;;;;;22.63;12.90;;;6.00;1.00;;;;;;4910228;29;20202;-66
2022/11/13 01:07:42;;;;;;;27.70;11.93;;;6.10;1.00;;;;;;4911808;29;20206;-65
2022/11/13 01:10:08;;;;;;;15.90;10.40;;;6.20;1.00;;;;;;4911901;29;20206;-65
2022/11/13 01:12:34;;;;;;;19.40;9.90;;;6.30;1.00;;;;;;4912297;29;20537;-66
2022/11/13 01:15:00;;;;;;;14.10;10.70;;;6.40;1.00;;;;;;4912587;29;20435;-67
2022/11/13 01:17:26;;;;;;;16.57;9.97;;;6.50;1.00;;;;;;4903672;29;20523;-67
2022/11/13 01:19:51;;;;;;;30.93;10.63;;;6.50;1.00;;;;;;4913547;29;20207;-67
2022/11/13 01:22:17;;;;;;;13.90;9.90;;;6.40;1.00;;;;;;4912110;29;20423;-67
2022/11/13 01:24:43;;;;;;;13.30;9.00;;;6.40;1.00;;;;;;4913981;29;20607;-66
2022/11/13 01:27:09;;;;;;;25.33;11.03;;;6.50;1.00;;;;;;4913645;29;20247;-68
2022/11/13 01:29:37;;;;;;;14.70;10.70;;;6.30;1.00;;;;;;4913164;29;20271;-67
2022/11/13 01:32:02;;;;;;;20.73;10.00;;;6.30;1.00;;;;;;4914733;29;20168;-66
2022/11/13 01:34:28;;;;;;;29.90;10.40;;;6.20;1.00;;;;;;4914231;29;20418;-66
2022/11/13 01:36:54;;;;;;;13.67;9.97;;;5.90;1.00;;;;;;4913813;29;20337;-65
2022/11/13 01:39:19;;;;;;;23.27;10.00;;;5.90;1.00;;;;;;4914597;29;20862;-66
2022/11/13 01:41:45;;;;;;;25.83;11.10;;;5.70;1.00;;;;;;4912475;29;20206;-66
2022/11/13 01:44:16;;;;;;;14.33;10.90;;;5.50;1.00;;;;;;4918005;29;20164;-65
2022/11/13 01:46:52;;;;;;;29.03;10.10;;;5.70;1.00;;;;;;4918354;29;20183;-65
2022/11/13 01:49:37;;;;;;;24.90;10.77;;;5.30;1.00;;;;;;4916219;29;21031;-65
2022/11/13 01:52:07;;;;;;;17.80;9.67;;;5.20;1.00;;;;;;4921784;29;20450;-65
2022/11/13 01:54:39;;;;;;;21.13;10.00;;;5.50;1.00;;;;;;4923798;29;20875;-65
2022/11/13 01:57:05;;;;;;;31.90;11.97;;;5.70;1.00;;;;;;4917938;29;20416;-66
2022/11/13 01:59:39;;;;;;;17.63;11.30;;;5.90;1.00;;;;;;4917202;29;20419;-65
2022/11/13 02:02:05;;;;;;;20.27;11.87;;;5.80;1.00;;;;;;4915342;29;20446;-64
2022/11/13 02:04:31;;;;;;;25.80;12.67;;;5.90;1.00;;;;;;4913370;29;20430;-64
2022/11/13 02:07:09;;;;;;;18.23;12.07;;;5.80;1.00;;;;;;4913594;29;20428;-65
2022/11/13 02:09:38;;;;;;;25.60;11.80;;;6.00;1.00;;;;;;4912240;29;20510;-62
2022/11/13 02:12:07;;;;;;;30.63;12.83;;;6.00;1.00;;;;;;4910947;29;20698;-64
2022/11/13 02:14:34;;;;;;;17.80;12.97;;;6.00;1.00;;;;;;4915663;29;20435;-65
2022/11/13 02:17:05;;;;;;;18.50;11.73;;;6.10;1.00;;;;;;4915493;29;20439;-65
2022/11/13 02:19:35;;;;;;;26.77;13.30;;;6.20;1.00;;;;;;4915923;29;20976;-64
2022/11/13 02:22:27;;;;;;;21.07;13.43;;;6.10;1.00;;;;;;4914683;29;20432;-64
2022/11/13 02:24:54;;;;;;;20.80;12.50;;;6.10;1.00;;;;;;4914518;29;20443;-65
2022/11/13 02:27:28;;;;;;;18.20;12.13;;;6.00;1.00;;;;;;4914662;29;20467;-65
2022/11/13 02:29:54;;;;;;;27.93;13.60;;;5.80;1.00;;;;;;4914493;29;20570;-65
2022/11/13 02:32:19;;;;;;;19.10;13.20;;;5.80;1.00;;;;;;4912809;29;20511;-66
2022/11/13 02:34:45;;;;;;;20.43;12.63;;;6.00;1.00;;;;;;4915870;29;20274;-64
2022/11/13 02:37:11;;;;;;;18.37;12.20;;;6.00;1.00;;;;;;4914787;29;20774;-64
2022/11/13 02:39:36;;;;;;;28.30;12.70;;;6.00;1.00;;;;;;4910927;29;20362;-64
2022/11/13 02:42:02;;;;;;;20.23;12.00;;;6.00;1.00;;;;;;4914470;29;20231;-63
2022/11/13 02:44:28;;;;;;;19.40;13.97;;;6.00;1.00;;;;;;4914488;29;20184;-64
2022/11/13 02:46:54;;;;;;;19.00;14.20;;;6.10;1.00;;;;;;4914541;29;20206;-64
2022/11/13 02:49:20;;;;;;;18.97;12.83;;;6.20;1.00;;;;;;4914226;29;20436;-65
2022/11/13 02:51:45;;;;;;;18.70;12.83;;;6.20;1.00;;;;;;4912790;29;20207;-65
2022/11/13 02:54:11;;;;;;;20.63;12.37;;;6.10;1.00;;;;;;4914934;29;20184;-65
2022/11/13 02:56:36;;;;;;;22.43;13.97;;;6.10;1.00;;;;;;4913928;29;20184;-65
2022/11/13 02:59:02;;;;;;;20.10;12.73;;;6.20;1.00;;;;;;4910669;29;20180;-63
2022/11/13 03:01:28;;;;;;;19.53;12.37;;;6.20;1.00;;;;;;4910120;29;20212;-64
2022/11/13 03:03:53;;;;;;;21.13;13.73;;;6.20;1.00;;;;;;4913810;29;20288;-64
2022/11/13 03:06:19;;;;;;;20.03;12.83;;;6.30;1.00;;;;;;4913038;29;20179;-65
2022/11/13 03:08:45;;;;;;;20.50;13.17;;;6.30;1.00;;;;;;4914121;29;20602;-64
2022/11/13 03:11:11;;;;;;;18.10;13.40;;;6.40;1.00;;;;;;4913352;29;20202;-64
2022/11/13 03:13:37;;;;;;;22.67;13.87;;;6.40;1.00;;;;;;4913253;29;20563;-63
2022/11/13 03:16:12;;;;;;;21.80;13.67;;;6.50;1.00;;;;;;4910376;29;20734;-64
2022/11/13 03:18:38;;;;;;;16.30;12.87;;;6.20;1.00;;;;;;4911715;29;20520;-65
2022/11/13 03:21:22;;;;;;;18.67;14.20;;;6.10;1.00;;;;;;4912531;29;20497;-64
2022/11/13 03:23:48;;;;;;;19.07;13.77;;;6.10;1.00;;;;;;4915039;29;20523;-64
2022/11/13 03:26:16;;;;;;;21.57;13.60;;;6.10;1.00;;;;;;4913514;29;20442;-64
2022/11/13 03:28:42;;;;;;;23.07;14.20;;;6.00;1.00;;;;;;4910980;29;20606;-65
2022/11/13 03:31:08;;;;;;;22.73;14.30;;;6.00;1.00;;;;;;4908326;29;20481;-64
2022/11/13 03:33:34;;;;;;;23.77;14.50;;;6.10;1.00;;;;;;4911646;29;20412;-64
2022/11/13 03:36:00;;;;;;;21.90;13.43;;;6.20;1.00;;;;;;4915030;29;20180;-64
2022/11/13 03:38:25;;;;;;;19.30;13.43;;;6.30;1.00;;;;;;4915914;29;20179;-64
2022/11/13 03:40:51;;;;;;;20.83;13.70;;;6.10;1.00;;;;;;4914669;29;21053;-65
2022/11/13 03:43:17;;;;;;;20.23;14.30;;;6.10;1.00;;;;;;4915606;29;20187;-65
2022/11/13 03:45:45;;;;;;;19.27;13.40;;;6.10;1.00;;;;;;4915305;29;20684;-64
2022/11/13 03:48:11;;;;;;;29.63;12.30;;;6.00;1.00;;;;;;4915808;29;20784;-65
2022/11/13 03:50:37;;;;;;;18.07;12.13;;;5.90;1.00;;;;;;4914238;29;20482;-65
2022/11/13 03:53:03;;;;;;;19.40;12.93;;;5.70;1.00;;;;;;4915738;29;20413;-65
2022/11/13 03:55:28;;;;;;;15.40;11.43;;;5.70;1.00;;;;;;4915248;29;20172;-66
2022/11/13 03:57:54;;;;;;;15.93;9.57;;;5.70;1.00;;;;;;4916382;29;20624;-67
2022/11/13 04:00:20;;;;;;;29.73;13.37;;;5.50;1.00;;;;;;4911272;29;20251;-66
2022/11/13 04:02:46;;;;;;;20.83;12.47;;;5.60;1.00;;;;;;4909433;29;20199;-66
2022/11/13 04:05:11;;;;;;;17.33;11.50;;;5.60;1.00;;;;;;4910006;29;20180;-66
2022/11/13 04:07:37;;;;;;;16.90;12.27;;;5.40;1.00;;;;;;4913745;29;20227;-67
2022/11/13 04:10:03;;;;;;;21.03;12.60;;;5.30;1.00;;;;;;4912438;29;20199;-67
2022/11/13 04:12:29;;;;;;;19.67;13.30;;;5.50;1.00;;;;;;4914134;29;20187;-67
2022/11/13 04:14:54;;;;;;;21.37;13.30;;;5.70;1.00;;;;;;4918446;29;20467;-66
2022/11/13 04:17:20;;;;;;;19.70;13.60;;;5.70;1.00;;;;;;4915105;29;20194;-66
2022/11/13 04:19:46;;;;;;;21.17;12.27;;;5.70;1.00;;;;;;4916243;29;20199;-67
2022/11/13 04:22:12;;;;;;;19.37;12.60;;;5.40;1.00;;;;;;4916672;29;20176;-67
2022/11/13 04:24:37;;;;;;;20.40;14.07;;;5.40;1.00;;;;;;4918679;29;20183;-66
2022/11/13 04:27:03;;;;;;;20.00;12.93;;;5.60;1.00;;;;;;4918469;29;20432;-66
2022/11/13 04:29:29;;;;;;;20.07;13.90;;;5.70;1.00;;;;;;4911072;29;20172;-66
2022/11/13 04:31:54;;;;;;;26.47;14.43;;;5.80;1.00;;;;;;4914292;29;20179;-66
2022/11/13 04:34:20;;;;;;;22.00;12.77;;;6.00;1.00;;;;;;4916894;29;20194;-67
2022/11/13 04:36:45;;;;;;;22.67;12.17;;;5.90;1.00;;;;;;4917654;29;20211;-67
2022/11/13 04:39:11;;;;;;;21.53;14.13;;;5.90;1.00;;;;;;4918197;29;20184;-66
2022/11/13 04:44:21;;;;;;;18.53;12.97;;;5.50;1.00;;;;;;4918246;29;20282;-67
2022/11/13 04:46:47;;;;;;;19.13;12.90;;;5.60;1.00;;;;;;4917918;29;20518;-65
2022/11/13 04:49:12;;;;;;;18.07;12.37;;;5.70;1.00;;;;;;4915604;29;20648;-67
2022/11/13 04:51:38;;;;;;;20.37;11.73;;;5.90;1.00;;;;;;4916020;29;20703;-67
2022/11/13 04:54:04;;;;;;;26.10;14.10;;;5.90;1.00;;;;;;4918358;29;20719;-67
2022/11/13 04:56:29;;;;;;;21.27;13.57;;;5.80;1.00;;;;;;4917113;29;20508;-67
2022/11/13 04:58:55;;;;;;;17.23;11.80;;;5.80;1.00;;;;;;4918228;29;20187;-65
2022/11/13 05:01:21;;;;;;;16.60;11.13;;;5.80;1.00;;;;;;4910777;29;20263;-65
2022/11/13 05:03:46;;;;;;;16.20;11.40;;;5.70;1.00;;;;;;4916669;29;20708;-65
2022/11/13 05:06:12;;;;;;;28.27;12.97;;;5.70;1.00;;;;;;4916780;29;20318;-65
2022/11/13 05:08:38;;;;;;;36.67;13.80;;;5.50;1.00;;;;;;4909659;29;20181;-65
2022/11/13 05:11:04;;;;;;;22.80;13.20;;;5.70;1.00;;;;;;4913342;29;20235;-65
2022/11/13 05:13:32;;;;;;;18.53;11.13;;;5.70;1.00;;;;;;4916495;29;20897;-64
2022/11/13 05:16:06;;;;;;;20.53;11.37;;;5.50;1.00;;;;;;4916097;29;20236;-64
2022/11/13 05:18:33;;;;;;;19.63;13.10;;;4.90;1.00;;;;;;4916964;29;20795;-64
2022/11/13 05:20:59;;;;;;;19.20;12.90;;;5.20;1.00;;;;;;4915407;29;21020;-64
2022/11/13 05:23:24;;;;;;;15.87;11.37;;;5.30;1.00;;;;;;4916435;29;20514;-64
2022/11/13 05:25:51;;;;;;;20.10;12.40;;;5.30;1.00;;;;;;4915494;29;20255;-65
2022/11/13 05:28:17;;;;;;;19.53;11.73;;;5.50;1.00;;;;;;4916254;29;20189;-64
2022/11/13 05:30:43;;;;;;;17.23;12.50;;;5.70;1.00;;;;;;4913451;29;20476;-65
2022/11/13 05:33:08;;;;;;;16.20;12.00;;;5.70;1.00;;;;;;4911649;29;20172;-65
2022/11/13 05:35:34;;;;;;;19.33;13.03;;;5.60;1.00;;;;;;4914410;29;20210;-65
2022/11/13 05:38:01;;;;;;;21.27;12.50;;;5.60;1.00;;;;;;4905351;29;20188;-64
2022/11/13 05:40:28;;;;;;;17.47;11.00;;;5.70;1.00;;;;;;4897870;29;20486;-65
2022/11/13 05:42:54;;;;;;;15.23;12.00;;;5.70;1.00;;;;;;4898228;29;20409;-64
2022/11/13 05:45:22;;;;;;;17.07;11.63;;;5.80;1.00;;;;;;4898335;29;20413;-63
2022/11/13 05:47:49;;;;;;;13.83;11.00;;;5.80;1.00;;;;;;4898340;29;20420;-64
2022/11/13 05:50:15;;;;;;;18.30;11.70;;;5.60;1.00;;;;;;4910382;29;20455;-64
2022/11/13 05:52:40;;;;;;;19.80;13.80;;;5.20;1.00;;;;;;4916471;29;20901;-64
2022/11/13 05:55:07;;;;;;;17.73;12.30;;;5.10;1.00;;;;;;4921578;29;20172;-66
2022/11/13 05:57:33;;;;;;;19.23;12.00;;;5.40;1.00;;;;;;4922725;29;20258;-64
2022/11/13 05:59:58;;;;;;;18.67;11.90;;;5.40;1.00;;;;;;4914573;29;20607;-66
2022/11/13 06:02:24;;;;;;;20.23;12.80;;;5.40;1.00;;;;;;4906660;29;20351;-66
2022/11/13 06:04:50;;;;;;;38.87;12.80;;;5.40;1.00;;;;;;4915756;29;20176;-64
2022/11/13 06:07:15;;;;;;;26.53;13.60;;;5.30;1.00;;;;;;4914532;29;20690;-66
2022/11/13 06:09:41;;;;;;;18.43;13.13;;;5.30;1.00;;;;;;4915715;29;20179;-65
2022/11/13 06:12:07;;;;;;;19.40;13.53;;;5.40;1.00;;;;;;4915212;29;20175;-64
2022/11/13 06:14:32;;;;;;;22.70;13.23;;;5.50;1.00;;;;;;4914382;29;20186;-65
2022/11/13 06:16:58;;;;;;;18.60;12.90;;;5.40;1.00;;;;;;4916001;29;20686;-65
2022/11/13 06:19:24;;;;;;;17.83;12.20;;;5.40;1.00;;;;;;4915762;29;20188;-66
2022/11/13 06:21:49;;;;;;;20.50;14.73;;;5.40;1.00;;;;;;4914750;29;20295;-65
2022/11/13 06:24:15;;;;;;;19.63;12.10;;;5.20;1.00;;;;;;4915479;29;20251;-65
2022/11/13 06:26:41;;;;;;;19.17;12.30;;;5.20;1.00;;;;;;4912864;29;20258;-66
2022/11/13 06:29:09;;;;;;;19.70;12.53;;;4.90;1.00;;;;;;4913442;29;20190;-64
2022/11/13 06:31:36;;;;;;;22.90;12.93;;;4.90;1.00;;;;;;4912978;29;20373;-65
2022/11/13 06:34:02;;;;;;;19.90;13.50;;;4.90;1.00;;;;;;4909259;29;20539;-64
2022/11/13 06:36:30;;;;;;;20.23;12.10;;;5.00;1.00;;;;;;4912022;29;20973;-65
2022/11/13 06:38:57;;;;;;;32.13;13.97;;;5.20;1.00;;;;;;4914626;29;20451;-66
2022/11/13 06:41:25;;;;;;;18.33;11.60;;;5.30;1.00;;;;;;4910671;29;20475;-65
2022/11/13 06:43:51;;;;;;;63.10;16.93;;;5.00;1.00;;;;;;4914547;29;20932;-66
2022/11/13 06:46:19;;;;;;;22.87;13.60;;;5.10;1.00;;;;;;4913489;29;20446;-65
2022/11/13 06:48:46;;;;;;;21.43;12.33;;;5.30;1.00;;;;;;4914056;29;20187;-65
2022/11/13 06:51:18;;;;;;;16.43;12.03;;;5.30;1.00;;;;;;4912702;29;20551;-65
2022/11/13 06:53:44;;;;;;;20.17;13.53;;;5.40;1.00;;;;;;4913873;29;20442;-65
2022/11/13 06:56:11;;;;;;;14.10;10.80;;;5.30;1.00;;;;;;4914694;29;20436;-64
2022/11/13 06:58:37;;;;;;;15.40;11.10;;;5.10;1.00;;;;;;4913859;29;20530;-65
2022/11/13 07:01:11;;;;;;;15.00;11.80;;;4.90;1.00;;;;;;4913852;29;20570;-64
2022/11/13 07:03:37;;;;;;;21.30;13.40;;;4.80;1.00;;;;;;4909106;29;20918;-64
2022/11/13 07:06:04;;;;;;;19.60;13.00;;;4.80;1.00;;;;;;4911591;29;20439;-65
2022/11/13 07:08:30;;;;;;;38.03;13.83;;;4.80;1.00;;;;;;4913429;29;20444;-63
2022/11/13 07:10:56;;;;;;;20.30;13.23;;;4.70;1.00;;;;;;4912981;29;20470;-63
2022/11/13 07:13:23;;;;;;;17.30;13.43;;;4.60;1.00;;;;;;4909351;29;20183;-64
2022/11/13 07:15:49;;;;;;;16.70;11.77;;;4.70;1.00;;;;;;4912961;29;20427;-64
2022/11/13 07:18:14;;;;;;;19.53;13.57;;;4.90;1.00;;;;;;4895863;29;20412;-63
2022/11/13 07:20:40;;;;;;;71.43;16.37;;;4.90;1.00;;;;;;4894515;29;20208;-64
2022/11/13 07:23:06;;;;;;;49.83;15.50;;;5.10;1.00;;;;;;4894733;29;20176;-65
2022/11/13 07:25:32;;;;;;;30.27;11.77;;;5.30;1.00;;;;;;4912079;29;20608;-64
2022/11/13 07:27:58;;;;;;;16.43;11.30;;;5.40;1.00;;;;;;4914040;29;20186;-65
2022/11/13 07:30:24;;;;;;;21.53;12.37;;;5.30;1.00;;;;;;4912374;29;20282;-66
2022/11/13 07:32:50;;;;;;;20.23;12.03;;;5.10;1.00;;;;;;4912701;29;20506;-64
2022/11/13 07:35:16;;;;;;;21.20;13.23;;;5.10;1.00;;;;;;4912224;29;21052;-64
2022/11/13 07:37:43;;;;;;;23.90;13.63;;;5.00;1.00;;;;;;4912143;29;20523;-66
2022/11/13 07:40:10;;;;;;;22.80;14.07;;;5.10;1.00;;;;;;4912958;29;20467;-66
2022/11/13 07:42:35;;;;;;;19.70;12.50;;;5.10;1.00;;;;;;4912366;29;20468;-65
2022/11/13 07:45:01;;;;;;;24.20;14.90;;;5.30;1.00;;;;;;4912284;29;20475;-66
2022/11/13 07:47:27;;;;;;;52.43;16.23;;;5.40;1.00;;;;;;4909893;29;20191;-65
2022/11/13 07:49:53;;;;;;;20.13;12.53;;;5.50;1.00;;;;;;4911697;29;20659;-66
2022/11/13 07:52:18;;;;;;;20.33;12.50;;;5.40;1.00;;;;;;4911949;29;20195;-66
2022/11/13 07:54:44;;;;;;;19.63;13.40;;;5.20;1.00;;;;;;4912031;29;20576;-65
2022/11/13 07:57:10;;;;;;;57.07;16.87;;;5.40;1.00;;;;;;4912534;29;20175;-66
2022/11/13 07:59:35;;;;;;;30.97;14.60;;;5.70;1.00;;;;;;4911686;29;20210;-65
2022/11/13 08:02:01;;;;;;;20.90;14.60;;;5.70;1.00;;;;;;4912274;29;20184;-67
2022/11/13 08:04:29;;;;;;;20.13;12.57;;;5.60;1.00;;;;;;4911974;29;20231;-67
2022/11/13 08:06:54;;;;;;;16.20;12.80;;;5.50;1.00;;;;;;4908970;29;20187;-67
2022/11/13 08:09:20;;;;;;;17.10;12.40;;;5.20;1.00;;;;;;4912458;29;20443;-66
2022/11/13 08:11:46;;;;;;;20.07;13.10;;;5.30;1.00;;;;;;4914103;29;20274;-67
2022/11/13 08:14:12;;;;;;;23.03;14.07;;;5.30;1.00;;;;;;4908001;29;20188;-66
2022/11/13 08:16:37;;;;;;;17.60;12.53;;;5.40;1.00;;;;;;4910244;29;20195;-65
2022/11/13 08:19:03;;;;;;;19.67;12.83;;;5.00;1.00;;;;;;4928546;29;20286;-67
2022/11/13 08:21:29;;;;;;;15.63;12.07;;;5.00;1.00;;;;;;4913766;29;20715;-67
2022/11/13 08:23:55;;;;;;;35.37;14.40;;;5.20;1.00;;;;;;4912690;29;20439;-67
2022/11/13 08:26:21;;;;;;;17.40;12.87;;;5.20;1.00;;;;;;4912319;29;20186;-64
2022/11/13 08:28:47;;;;;;;19.60;13.50;;;5.30;1.00;;;;;;4912876;29;20208;-64
2022/11/13 08:31:15;;;;;;;19.40;14.20;;;5.40;1.00;;;;;;4911836;29;20499;-66
2022/11/13 08:33:41;;;;;;;20.73;13.97;;;5.30;1.00;;;;;;4912379;29;20531;-65
2022/11/13 08:36:09;;;;;;;21.13;14.90;;;5.20;1.00;;;;;;4912619;29;20984;-66
2022/11/13 08:38:35;;;;;;;15.73;12.60;;;5.10;1.00;;;;;;4911878;29;20461;-65
2022/11/13 08:41:03;;;;;;;29.43;14.37;;;5.10;1.00;;;;;;4913343;29;20471;-64
2022/11/13 08:43:28;;;;;;;23.60;13.80;;;5.10;1.00;;;;;;4918070;29;20455;-66
2022/11/13 08:45:54;;;;;;;20.20;14.20;;;5.20;1.00;;;;;;4912506;29;20435;-63
2022/11/13 08:48:21;;;;;;;23.37;14.03;;;4.90;1.00;;;;;;4912926;29;20183;-62
2022/11/13 08:50:51;;;;;;;23.70;14.60;;;5.00;1.00;;;;;;4910809;29;20547;-65
2022/11/13 08:53:17;;;;;;;22.90;15.63;;;5.10;1.00;;;;;;4911155;29;20447;-64
2022/11/13 08:55:42;;;;;;;24.83;15.27;;;5.10;1.00;;;;;;4904797;29;20439;-66
2022/11/13 08:58:08;;;;;;;48.43;19.23;;;5.10;1.00;;;;;;4913517;29;20554;-64
2022/11/13 09:00:34;;;;;;;22.50;15.23;;;5.20;1.00;;;;;;4915417;29;20225;-65
2022/11/13 09:03:01;;;;;;;32.60;14.70;;;5.30;1.00;;;;;;4914098;29;20944;-70
2022/11/13 09:05:27;;;;;;;18.73;14.57;;;5.30;1.00;;;;;;4915341;29;20196;-68
2022/11/13 09:07:59;;;;;;;20.00;15.50;;;5.50;1.00;;;;;;4915894;29;20556;-68
2022/11/13 09:10:25;;;;;;;87.73;22.03;;;5.60;1.00;;;;;;4912628;29;20207;-68
2022/11/13 09:13:00;;;;;;;22.20;14.80;;;5.80;1.00;;;;;;4915286;29;20801;-69
2022/11/13 09:15:26;;;;;;;24.57;15.03;;;5.80;1.00;;;;;;4914452;29;20455;-67
2022/11/13 09:17:56;;;;;;;23.87;15.67;;;5.70;1.00;;;;;;4915422;29;20439;-69
2022/11/13 09:20:21;;;;;;;19.40;14.30;;;5.50;1.00;;;;;;4913465;29;20503;-68
2022/11/13 09:22:47;;;;;;;21.43;14.17;;;5.60;1.00;;;;;;4915254;29;20471;-68
2022/11/13 09:25:13;;;;;;;18.53;14.53;;;5.50;1.00;;;;;;4914105;29;20645;-71
2022/11/13 09:27:38;;;;;;;23.07;17.10;;;5.60;1.00;;;;;;4914067;29;20198;-69
2022/11/13 09:30:04;;;;;;;18.63;14.10;;;5.70;1.00;;;;;;4914638;29;20222;-68
2022/11/13 09:32:30;;;;;;;21.07;14.00;;;5.80;1.00;;;;;;4908486;29;20194;-67
2022/11/13 09:34:56;;;;;;;15.93;12.30;;;5.80;1.00;;;;;;4915165;29;20440;-68
2022/11/13 09:37:21;;;;;;;20.00;15.50;;;5.90;1.00;;;;;;4914888;29;20270;-68
2022/11/13 09:39:47;;;;;;;20.57;15.13;;;5.90;1.00;;;;;;4915382;29;20215;-67
2022/11/13 09:42:22;;;;;;;19.17;15.57;;;5.90;1.00;;;;;;4914025;29;20182;-68
2022/11/13 09:44:56;;;;;;;21.37;14.40;;;5.80;1.00;;;;;;4908466;29;20223;-69
2022/11/13 09:47:30;;;;;;;20.50;15.03;;;5.80;1.00;;;;;;4914942;29;20447;-69
2022/11/13 09:50:05;;;;;;;25.67;16.20;;;5.90;1.00;;;;;;4915988;29;20885;-69
2022/11/13 09:52:34;;;;;;;25.30;15.33;;;6.10;1.00;;;;;;4914791;29;20445;-69
2022/11/13 09:55:03;;;;;;;27.10;16.47;;;6.30;1.00;;;;;;4912440;29;20538;-70
2022/11/13 09:57:44;;;;;;;28.80;15.27;;;6.50;1.00;;;;;;4914877;29;20454;-69
2022/11/13 10:00:18;;;;;;;27.50;14.90;;;6.40;1.00;;;;;;4909343;29;20634;-68
2022/11/13 10:03:05;;;;;;;50.70;19.10;;;6.40;1.00;;;;;;4914209;29;20463;-69
2022/11/13 10:05:52;;;;;;;43.40;17.50;;;6.50;1.00;;;;;;4905327;29;20433;-69
2022/11/13 10:08:28;;;;;;;38.57;15.90;;;6.70;1.00;;;;;;4915278;29;20439;-69
2022/11/13 10:11:19;;;;;;;57.60;18.37;;;6.70;1.00;;;;;;4913808;29;20463;-69
2022/11/13 10:13:51;;;;;;;29.73;17.13;;;6.80;1.00;;;;;;4915484;29;20436;-69
2022/11/13 10:16:41;;;;;;;158.53;27.60;;;6.60;1.00;;;;;;4915208;29;20410;-69
2022/11/13 10:19:53;;;;;;;64.30;19.00;;;6.80;1.00;;;;;;4915172;29;20792;-69
2022/11/13 10:22:32;;;;;;;184.87;30.03;;;6.90;1.00;;;;;;4880003;29;20459;-70
2022/11/13 10:25:27;;;;;;;19.23;14.87;;;7.10;1.00;;;;;;4915574;29;20503;-69
2022/11/13 10:27:56;;;;;;;19.00;15.00;;;6.90;1.00;;;;;;4913702;29;20416;-69
2022/11/13 10:30:22;;;;;;;73.10;20.20;;;6.70;1.00;;;;;;4941781;29;20486;-69
2022/11/13 10:32:48;;;;;;;28.17;17.43;;;6.70;1.00;;;;;;4935936;29;20547;-69
2022/11/13 10:35:44;;;;;;;24.83;15.17;;;7.00;1.00;;;;;;4937746;29;20407;-69
2022/11/13 10:38:15;;;;;;;102.63;20.83;;;7.20;1.00;;;;;;4930833;29;20412;-69
2022/11/13 10:40:41;;;;;;;82.07;19.83;;;7.50;1.00;;;;;;4913858;29;20502;-69
2022/11/13 10:43:18;;;;;;;23.87;14.33;;;7.60;99.90;;;;;;4915299;29;20431;-69
2022/11/13 10:45:58;;;;;;;45.87;17.93;;;7.40;99.90;;;;;;4917418;29;20198;-68
2022/11/13 10:48:41;;;;;;;54.37;17.93;;;7.50;99.90;;;;;;4919811;29;20432;-67
2022/11/13 10:51:21;;;;;;;21.87;14.70;;;7.40;99.90;;;;;;4915539;29;20459;-69
2022/11/13 10:53:47;;;;;;;36.63;15.73;;;7.40;99.90;;;;;;4913673;29;20492;-69
2022/11/13 10:56:26;;;;;;;49.67;17.10;;;7.00;99.90;;;;;;4909049;29;20444;-69
2022/11/13 10:59:10;;;;;;;20.30;16.13;;;7.10;1.00;;;;;;4912922;29;20175;-70
2022/11/13 11:01:36;;;;;;;21.40;14.40;;;7.00;1.00;;;;;;4913097;29;21033;-68
2022/11/13 11:04:04;;;;;;;76.90;20.33;;;6.90;1.00;;;;;;4913604;29;20601;-69
2022/11/13 11:06:34;;;;;;;40.03;15.60;;;7.00;1.00;;;;;;4916070;29;20432;-70
2022/11/13 11:09:37;;;;;;;31.33;14.93;;;7.10;1.00;;;;;;4919010;29;20432;-69
2022/11/13 11:12:26;;;;;;;16.40;12.70;;;7.40;1.00;;;;;;4910177;29;20525;-68
2022/11/13 11:14:58;;;;;;;29.10;15.43;;;7.60;99.90;;;;;;4917790;29;20482;-69
2022/11/13 11:17:53;;;;;;;25.33;14.40;;;7.80;99.90;;;;;;4916760;29;20602;-68
2022/11/13 11:20:39;;;;;;;34.63;17.93;;;7.90;1.00;;;;;;4917653;29;20467;-70
2022/11/13 11:23:14;;;;;;;17.27;12.90;;;8.10;99.90;;;;;;4915027;29;20436;-68
2022/11/13 11:25:47;;;;;;;29.23;15.23;;;8.10;1.00;;;;;;4917876;29;20458;-68
2022/11/13 11:28:27;;;;;;;21.10;14.40;;;8.20;1.00;;;;;;4916461;29;20913;-67
2022/11/13 11:31:05;;;;;;;33.10;15.13;;;8.30;1.00;;;;;;4911211;29;20507;-68
2022/11/13 11:33:53;;;;;;;94.00;22.87;;;8.40;99.90;;;;;;4915408;29;20439;-68
2022/11/13 11:36:33;;;;;;;42.87;15.40;;;8.50;94.30;;;;;;4909866;29;20442;-66
2022/11/13 11:39:26;;;;;;;28.03;13.93;;;9.60;1.00;;;;;;4915901;29;20497;-67
2022/11/13 11:42:17;;;;;;;20.10;13.50;;;9.20;99.90;;;;;;4913049;29;20471;-67
2022/11/13 11:45:00;;;;;;;18.40;14.00;;;9.20;58.40;;;;;;4915645;29;20936;-68
2022/11/13 11:47:26;;;;;;;24.77;14.30;;;9.30;1.00;;;;;;4913973;29;20472;-67
2022/11/13 11:49:53;;;;;;;26.67;14.30;;;9.00;1.00;;;;;;4935997;28;20451;-67
2022/11/13 11:52:40;;;;;;;30.93;14.63;;;9.10;1.00;;;;;;4912285;29;20510;-69
2022/11/13 11:55:39;;;;;;;15.00;13.40;;;9.10;1.00;;;;;;4917315;29;20487;-69
2022/11/13 11:58:27;;;;;;;14.30;12.80;;;9.10;99.90;;;;;;4917253;29;20430;-69
2022/11/13 12:01:02;;;;;;;19.10;13.70;;;8.60;1.00;;;;;;4910094;29;20885;-69
2022/11/13 12:03:45;;;;;;;13.97;12.60;;;8.60;1.00;;;;;;4918555;29;20427;-69
2022/11/13 12:06:22;;;;;;;17.40;13.70;;;8.70;1.00;;;;;;4917451;29;20452;-68
2022/11/13 12:09:03;;;;;;;14.90;12.57;;;8.80;99.90;;;;;;4911475;29;21070;-68
2022/11/13 12:11:33;;;;;;;20.07;13.93;;;8.90;99.90;;;;;;4915667;29;20826;-68
2022/11/13 12:14:10;;;;;;;17.83;13.10;;;8.90;99.90;;;;;;4911468;29;20434;-68
2022/11/13 12:17:09;;;;;;;16.97;13.20;;;8.90;1.00;;;;;;4916582;29;20435;-69
2022/11/13 12:19:59;;;;;;;15.53;12.23;;;8.80;1.00;;;;;;4913317;29;20436;-68
2022/11/13 12:22:42;;;;;;;15.63;14.03;;;8.60;1.00;;;;;;4913149;29;20458;-68
2022/11/13 12:25:49;;;;;;;15.13;13.53;;;8.70;1.00;;;;;;4914033;29;20566;-70
2022/11/13 12:28:24;;;;;;;15.90;13.50;;;8.70;1.00;;;;;;4875966;29;20441;-69
2022/11/13 12:31:06;;;;;;;20.90;13.80;;;8.90;1.00;;;;;;4901168;29;20475;-70
2022/11/13 12:34:08;;;;;;;21.87;12.90;;;9.20;1.00;;;;;;4916545;29;20758;-69
2022/11/13 12:36:35;;;;;;;109.37;21.17;;;9.60;1.00;;;;;;4913037;29;20462;-68
2022/11/13 12:39:25;;;;;;;35.93;14.23;;;9.90;1.00;;;;;;4919501;29;20454;-69
2022/11/13 12:42:09;;;;;;;15.70;13.00;;;9.90;1.00;;;;;;4915666;29;20493;-67
2022/11/13 12:44:59;;;;;;;14.10;12.63;;;9.90;99.90;;;;;;4919335;29;20450;-70
2022/11/13 12:47:25;;;;;;;30.00;14.67;;;9.70;1.00;;;;;;4922148;29;20439;-67
2022/11/13 12:50:03;;;;;;;62.60;20.70;;;9.60;1.00;;;;;;4913757;29;20566;-68
2022/11/13 12:52:29;;;;;;;126.50;26.83;;;9.40;99.90;;;;;;4915728;29;20803;-67
2022/11/13 12:55:07;;;;;;;227.00;35.63;;;9.60;99.90;;;;;;4911372;29;20511;-69
2022/11/13 12:57:34;;;;;;;254.47;37.40;;;9.90;1.00;;;;;;4918324;29;20279;-69
2022/11/13 13:00:21;;;;;;;67.23;18.33;;;10.00;1.00;;;;;;4916247;29;20475;-70
2022/11/13 13:03:21;;;;;;;77.77;17.20;;;10.10;99.90;;;;;;4914658;29;20924;-70